sensor_id;sensor_type;location;lat;lon;timestamp;P1;durP1;ratioP1;P2;durP2;ratioP2
58152;SDS011;43967;51.634;5.566;2023-03-01T00:04:33;8.27;;;3.00;;
58152;SDS011;43967;51.634;5.566;2023-03-01T00:09:54;7.63;;;2.90;;
58152;SDS011;43967;51.634;5.566;2023-03-01T00:15:15;6.72;;;2.40;;
58152;SDS011;43967;51.634;5.566;2023-03-01T00:20:37;7.95;;;3.05;;
58152;SDS011;43967;51.634;5.566;2023-03-01T00:25:58;6.93;;;2.63;;
58152;SDS011;43967;51.634;5.566;2023-03-01T00:31:20;7.53;;;2.92;;
58152;SDS011;43967;51.634;5.566;2023-03-01T00:36:47;7.38;;;2.55;;
58152;SDS011;43967;51.634;5.566;2023-03-01T00:42:08;7.83;;;3.10;;
58152;SDS011;43967;51.634;5.566;2023-03-01T00:47:29;6.75;;;2.35;;
58152;SDS011;43967;51.634;5.566;2023-03-01T00:52:54;8.60;;;2.70;;
58152;SDS011;43967;51.634;5.566;2023-03-01T00:58:16;6.93;;;2.50;;
58152;SDS011;43967;51.634;5.566;2023-03-01T01:03:37;8.13;;;3.20;;
58152;SDS011;43967;51.634;5.566;2023-03-01T01:08:58;7.93;;;3.08;;
58152;SDS011;43967;51.634;5.566;2023-03-01T01:14:20;8.30;;;3.17;;
58152;SDS011;43967;51.634;5.566;2023-03-01T01:19:41;6.60;;;2.70;;
58152;SDS011;43967;51.634;5.566;2023-03-01T01:25:03;6.63;;;2.40;;
58152;SDS011;43967;51.634;5.566;2023-03-01T01:30:24;7.50;;;2.38;;
58152;SDS011;43967;51.634;5.566;2023-03-01T01:35:46;6.77;;;2.80;;
58152;SDS011;43967;51.634;5.566;2023-03-01T01:41:07;8.00;;;2.90;;
58152;SDS011;43967;51.634;5.566;2023-03-01T01:46:33;6.95;;;2.70;;
58152;SDS011;43967;51.634;5.566;2023-03-01T01:52:16;7.27;;;2.87;;
58152;SDS011;43967;51.634;5.566;2023-03-01T01:57:48;6.73;;;2.70;;
58152;SDS011;43967;51.634;5.566;2023-03-01T02:03:14;8.23;;;2.90;;
58152;SDS011;43967;51.634;5.566;2023-03-01T02:08:41;6.60;;;2.60;;
58152;SDS011;43967;51.634;5.566;2023-03-01T02:14:03;6.53;;;2.50;;
58152;SDS011;43967;51.634;5.566;2023-03-01T02:30:37;7.40;;;2.50;;
58152;SDS011;43967;51.634;5.566;2023-03-01T02:35:59;7.60;;;2.40;;
58152;SDS011;43967;51.634;5.566;2023-03-01T02:41:22;6.95;;;2.78;;
58152;SDS011;43967;51.634;5.566;2023-03-01T02:46:47;6.40;;;2.50;;
58152;SDS011;43967;51.634;5.566;2023-03-01T02:57:59;6.20;;;2.40;;
58152;SDS011;43967;51.634;5.566;2023-03-01T03:03:23;7.22;;;2.58;;
58152;SDS011;43967;51.634;5.566;2023-03-01T03:08:44;6.10;;;2.30;;
58152;SDS011;43967;51.634;5.566;2023-03-01T03:14:06;7.03;;;2.70;;
58152;SDS011;43967;51.634;5.566;2023-03-01T03:19:28;6.88;;;2.47;;
58152;SDS011;43967;51.634;5.566;2023-03-01T03:24:49;6.40;;;2.43;;
58152;SDS011;43967;51.634;5.566;2023-03-01T03:30:11;6.07;;;2.10;;
58152;SDS011;43967;51.634;5.566;2023-03-01T03:35:39;6.60;;;2.70;;
58152;SDS011;43967;51.634;5.566;2023-03-01T03:41:04;5.90;;;2.20;;
58152;SDS011;43967;51.634;5.566;2023-03-01T03:46:27;5.97;;;2.10;;
58152;SDS011;43967;51.634;5.566;2023-03-01T03:51:48;6.22;;;2.38;;
58152;SDS011;43967;51.634;5.566;2023-03-01T03:57:09;6.13;;;2.60;;
58152;SDS011;43967;51.634;5.566;2023-03-01T04:02:31;6.13;;;2.13;;
58152;SDS011;43967;51.634;5.566;2023-03-01T04:07:52;7.13;;;2.20;;
58152;SDS011;43967;51.634;5.566;2023-03-01T04:13:15;6.22;;;2.38;;
58152;SDS011;43967;51.634;5.566;2023-03-01T04:18:37;6.20;;;2.67;;
58152;SDS011;43967;51.634;5.566;2023-03-01T04:23:59;6.65;;;2.60;;
58152;SDS011;43967;51.634;5.566;2023-03-01T04:29:20;6.45;;;2.30;;
58152;SDS011;43967;51.634;5.566;2023-03-01T04:34:41;5.70;;;2.07;;
58152;SDS011;43967;51.634;5.566;2023-03-01T04:40:02;5.73;;;2.40;;
58152;SDS011;43967;51.634;5.566;2023-03-01T04:45:24;6.75;;;2.20;;
58152;SDS011;43967;51.634;5.566;2023-03-01T04:50:45;6.80;;;2.47;;
58152;SDS011;43967;51.634;5.566;2023-03-01T04:56:07;5.90;;;2.10;;
58152;SDS011;43967;51.634;5.566;2023-03-01T05:01:28;6.25;;;2.55;;
58152;SDS011;43967;51.634;5.566;2023-03-01T05:06:50;6.63;;;2.70;;
58152;SDS011;43967;51.634;5.566;2023-03-01T05:12:11;6.20;;;2.30;;
58152;SDS011;43967;51.634;5.566;2023-03-01T05:17:33;6.35;;;2.10;;
58152;SDS011;43967;51.634;5.566;2023-03-01T05:22:56;6.00;;;2.05;;
58152;SDS011;43967;51.634;5.566;2023-03-01T05:28:19;5.80;;;2.00;;
58152;SDS011;43967;51.634;5.566;2023-03-01T05:33:41;5.63;;;2.20;;
58152;SDS011;43967;51.634;5.566;2023-03-01T05:39:02;5.90;;;2.05;;
58152;SDS011;43967;51.634;5.566;2023-03-01T05:44:23;6.80;;;2.00;;
58152;SDS011;43967;51.634;5.566;2023-03-01T05:49:45;6.93;;;2.40;;
58152;SDS011;43967;51.634;5.566;2023-03-01T05:55:07;5.70;;;1.70;;
58152;SDS011;43967;51.634;5.566;2023-03-01T06:00:29;6.22;;;2.17;;
58152;SDS011;43967;51.634;5.566;2023-03-01T06:05:55;6.20;;;2.00;;
58152;SDS011;43967;51.634;5.566;2023-03-01T06:11:17;6.22;;;2.08;;
58152;SDS011;43967;51.634;5.566;2023-03-01T06:16:39;6.03;;;2.10;;
58152;SDS011;43967;51.634;5.566;2023-03-01T06:22:00;6.97;;;2.17;;
58152;SDS011;43967;51.634;5.566;2023-03-01T06:27:21;6.40;;;2.00;;
58152;SDS011;43967;51.634;5.566;2023-03-01T06:32:42;5.75;;;1.90;;
58152;SDS011;43967;51.634;5.566;2023-03-01T06:38:04;5.80;;;2.13;;
58152;SDS011;43967;51.634;5.566;2023-03-01T06:43:25;5.63;;;1.80;;
58152;SDS011;43967;51.634;5.566;2023-03-01T06:48:47;5.63;;;1.80;;
58152;SDS011;43967;51.634;5.566;2023-03-01T06:54:08;5.60;;;1.75;;
58152;SDS011;43967;51.634;5.566;2023-03-01T06:59:29;6.63;;;2.20;;
58152;SDS011;43967;51.634;5.566;2023-03-01T07:04:51;5.82;;;1.92;;
58152;SDS011;43967;51.634;5.566;2023-03-01T07:10:12;5.82;;;2.13;;
58152;SDS011;43967;51.634;5.566;2023-03-01T07:15:33;6.00;;;2.20;;
58152;SDS011;43967;51.634;5.566;2023-03-01T07:20:55;6.00;;;1.87;;
58152;SDS011;43967;51.634;5.566;2023-03-01T07:26:16;7.55;;;2.40;;
58152;SDS011;43967;51.634;5.566;2023-03-01T07:31:37;10.25;;;2.53;;
58152;SDS011;43967;51.634;5.566;2023-03-01T07:36:58;8.10;;;2.30;;
58152;SDS011;43967;51.634;5.566;2023-03-01T07:42:20;6.60;;;2.40;;
58152;SDS011;43967;51.634;5.566;2023-03-01T07:47:41;7.32;;;2.47;;
58152;SDS011;43967;51.634;5.566;2023-03-01T07:53:02;6.73;;;2.60;;
58152;SDS011;43967;51.634;5.566;2023-03-01T07:58:23;8.57;;;2.30;;
58152;SDS011;43967;51.634;5.566;2023-03-01T08:03:45;6.90;;;2.28;;
58152;SDS011;43967;51.634;5.566;2023-03-01T08:09:06;7.23;;;2.10;;
58152;SDS011;43967;51.634;5.566;2023-03-01T08:14:28;9.13;;;2.50;;
58152;SDS011;43967;51.634;5.566;2023-03-01T08:19:49;6.85;;;2.20;;
58152;SDS011;43967;51.634;5.566;2023-03-01T08:25:10;7.50;;;1.98;;
58152;SDS011;43967;51.634;5.566;2023-03-01T08:30:32;7.77;;;2.30;;
58152;SDS011;43967;51.634;5.566;2023-03-01T08:36:11;12.50;;;2.03;;
58152;SDS011;43967;51.634;5.566;2023-03-01T08:41:33;8.45;;;2.45;;
58152;SDS011;43967;51.634;5.566;2023-03-01T08:46:54;6.33;;;2.17;;
58152;SDS011;43967;51.634;5.566;2023-03-01T08:52:15;7.47;;;2.25;;
58152;SDS011;43967;51.634;5.566;2023-03-01T08:57:37;9.60;;;2.22;;
58152;SDS011;43967;51.634;5.566;2023-03-01T09:02:58;8.30;;;2.23;;
58152;SDS011;43967;51.634;5.566;2023-03-01T09:08:19;12.30;;;2.57;;
58152;SDS011;43967;51.634;5.566;2023-03-01T09:13:41;8.88;;;2.10;;
58152;SDS011;43967;51.634;5.566;2023-03-01T09:19:02;8.43;;;2.22;;
58152;SDS011;43967;51.634;5.566;2023-03-01T09:24:25;7.63;;;2.27;;
58152;SDS011;43967;51.634;5.566;2023-03-01T09:29:46;7.07;;;2.40;;
58152;SDS011;43967;51.634;5.566;2023-03-01T09:35:08;9.05;;;2.28;;
58152;SDS011;43967;51.634;5.566;2023-03-01T09:40:29;7.30;;;1.90;;
58152;SDS011;43967;51.634;5.566;2023-03-01T09:45:50;8.40;;;2.15;;
58152;SDS011;43967;51.634;5.566;2023-03-01T09:51:29;7.32;;;2.00;;
58152;SDS011;43967;51.634;5.566;2023-03-01T09:57:06;7.47;;;2.40;;
58152;SDS011;43967;51.634;5.566;2023-03-01T10:08:06;11.45;;;2.50;;
58152;SDS011;43967;51.634;5.566;2023-03-01T10:14:05;10.02;;;2.20;;
58152;SDS011;43967;51.634;5.566;2023-03-01T10:19:32;6.70;;;1.90;;
58152;SDS011;43967;51.634;5.566;2023-03-01T10:25:02;8.27;;;2.53;;
58152;SDS011;43967;51.634;5.566;2023-03-01T10:30:45;7.53;;;2.78;;
58152;SDS011;43967;51.634;5.566;2023-03-01T10:36:05;8.20;;;3.17;;
58152;SDS011;43967;51.634;5.566;2023-03-01T10:41:27;7.57;;;2.80;;
58152;SDS011;43967;51.634;5.566;2023-03-01T10:46:48;7.80;;;2.92;;
58152;SDS011;43967;51.634;5.566;2023-03-01T10:52:23;7.20;;;2.70;;
58152;SDS011;43967;51.634;5.566;2023-03-01T10:57:47;7.00;;;2.70;;
58152;SDS011;43967;51.634;5.566;2023-03-01T11:03:12;9.43;;;2.90;;
58152;SDS011;43967;51.634;5.566;2023-03-01T11:08:45;6.80;;;2.67;;
58152;SDS011;43967;51.634;5.566;2023-03-01T11:14:14;7.23;;;2.87;;
58152;SDS011;43967;51.634;5.566;2023-03-01T11:19:37;7.45;;;2.83;;
58152;SDS011;43967;51.634;5.566;2023-03-01T11:24:59;9.98;;;3.78;;
58152;SDS011;43967;51.634;5.566;2023-03-01T11:30:24;14.93;;;5.07;;
58152;SDS011;43967;51.634;5.566;2023-03-01T11:41:37;51.60;;;17.98;;
58152;SDS011;43967;51.634;5.566;2023-03-01T11:52:43;32.57;;;12.70;;
58152;SDS011;43967;51.634;5.566;2023-03-01T12:15:42;29.25;;;10.52;;
58152;SDS011;43967;51.634;5.566;2023-03-01T12:26:55;24.00;;;8.80;;
58152;SDS011;43967;51.634;5.566;2023-03-01T12:38:19;24.77;;;8.30;;
58152;SDS011;43967;51.634;5.566;2023-03-01T12:49:56;21.90;;;7.57;;
58152;SDS011;43967;51.634;5.566;2023-03-01T12:55:25;19.98;;;6.97;;
58152;SDS011;43967;51.634;5.566;2023-03-01T13:01:04;20.30;;;6.55;;
58152;SDS011;43967;51.634;5.566;2023-03-01T13:23:38;17.70;;;6.00;;
58152;SDS011;43967;51.634;5.566;2023-03-01T13:29:00;15.95;;;5.65;;
58152;SDS011;43967;51.634;5.566;2023-03-01T13:45:41;14.87;;;5.37;;
58152;SDS011;43967;51.634;5.566;2023-03-01T13:51:04;13.40;;;4.97;;
58152;SDS011;43967;51.634;5.566;2023-03-01T13:56:36;12.13;;;3.90;;
58152;SDS011;43967;51.634;5.566;2023-03-01T14:01:59;12.07;;;4.27;;
58152;SDS011;43967;51.634;5.566;2023-03-01T14:07:22;15.68;;;5.18;;
58152;SDS011;43967;51.634;5.566;2023-03-01T14:18:52;13.03;;;4.07;;
58152;SDS011;43967;51.634;5.566;2023-03-01T14:24:03;10.57;;;4.13;;
58152;SDS011;43967;51.634;5.566;2023-03-01T14:29:32;11.52;;;4.05;;
58152;SDS011;43967;51.634;5.566;2023-03-01T14:34:56;11.50;;;4.43;;
58152;SDS011;43967;51.634;5.566;2023-03-01T14:45:48;9.77;;;3.72;;
58152;SDS011;43967;51.634;5.566;2023-03-01T14:51:11;10.93;;;3.88;;
58152;SDS011;43967;51.634;5.566;2023-03-01T14:56:43;9.60;;;3.47;;
58152;SDS011;43967;51.634;5.566;2023-03-01T15:02:08;8.60;;;3.40;;
58152;SDS011;43967;51.634;5.566;2023-03-01T15:07:39;10.60;;;3.40;;
58152;SDS011;43967;51.634;5.566;2023-03-01T15:13:12;10.03;;;3.57;;
58152;SDS011;43967;51.634;5.566;2023-03-01T15:18:57;7.95;;;2.85;;
58152;SDS011;43967;51.634;5.566;2023-03-01T15:24:24;9.00;;;3.33;;
58152;SDS011;43967;51.634;5.566;2023-03-01T15:29:51;8.20;;;2.67;;
58152;SDS011;43967;51.634;5.566;2023-03-01T15:41:00;8.63;;;2.90;;
58152;SDS011;43967;51.634;5.566;2023-03-01T15:46:28;8.20;;;3.13;;
58152;SDS011;43967;51.634;5.566;2023-03-01T15:51:52;9.63;;;3.10;;
58152;SDS011;43967;51.634;5.566;2023-03-01T15:57:15;7.75;;;2.72;;
58152;SDS011;43967;51.634;5.566;2023-03-01T16:02:37;8.60;;;2.67;;
58152;SDS011;43967;51.634;5.566;2023-03-01T16:07:58;8.67;;;3.20;;
58152;SDS011;43967;51.634;5.566;2023-03-01T16:13:20;7.95;;;3.10;;
58152;SDS011;43967;51.634;5.566;2023-03-01T16:18:45;9.60;;;2.83;;
58152;SDS011;43967;51.634;5.566;2023-03-01T16:24:07;8.87;;;2.87;;
58152;SDS011;43967;51.634;5.566;2023-03-01T16:29:29;8.07;;;2.53;;
58152;SDS011;43967;51.634;5.566;2023-03-01T16:34:50;7.50;;;2.75;;
58152;SDS011;43967;51.634;5.566;2023-03-01T16:40:19;8.70;;;2.75;;
58152;SDS011;43967;51.634;5.566;2023-03-01T16:45:41;8.33;;;2.50;;
58152;SDS011;43967;51.634;5.566;2023-03-01T16:51:03;7.55;;;2.75;;
58152;SDS011;43967;51.634;5.566;2023-03-01T16:56:24;7.55;;;2.30;;
58152;SDS011;43967;51.634;5.566;2023-03-01T17:01:46;7.47;;;2.60;;
58152;SDS011;43967;51.634;5.566;2023-03-01T17:07:07;7.82;;;2.40;;
58152;SDS011;43967;51.634;5.566;2023-03-01T17:12:28;8.13;;;2.42;;
58152;SDS011;43967;51.634;5.566;2023-03-01T17:17:50;6.80;;;2.40;;
58152;SDS011;43967;51.634;5.566;2023-03-01T17:23:11;6.93;;;2.57;;
58152;SDS011;43967;51.634;5.566;2023-03-01T17:28:32;7.40;;;2.30;;
58152;SDS011;43967;51.634;5.566;2023-03-01T17:33:54;7.75;;;2.72;;
58152;SDS011;43967;51.634;5.566;2023-03-01T17:39:16;6.97;;;2.20;;
58152;SDS011;43967;51.634;5.566;2023-03-01T17:44:37;7.22;;;2.35;;
58152;SDS011;43967;51.634;5.566;2023-03-01T17:49:58;6.82;;;2.10;;
58152;SDS011;43967;51.634;5.566;2023-03-01T17:55:20;6.50;;;2.00;;
58152;SDS011;43967;51.634;5.566;2023-03-01T18:00:42;7.40;;;2.28;;
58152;SDS011;43967;51.634;5.566;2023-03-01T18:06:09;7.13;;;2.55;;
58152;SDS011;43967;51.634;5.566;2023-03-01T18:11:32;7.40;;;2.40;;
58152;SDS011;43967;51.634;5.566;2023-03-01T18:16:54;7.17;;;2.17;;
58152;SDS011;43967;51.634;5.566;2023-03-01T18:22:15;7.57;;;2.38;;
58152;SDS011;43967;51.634;5.566;2023-03-01T18:27:37;7.95;;;2.60;;
58152;SDS011;43967;51.634;5.566;2023-03-01T18:32:58;7.50;;;1.93;;
58152;SDS011;43967;51.634;5.566;2023-03-01T18:38:19;6.50;;;2.20;;
58152;SDS011;43967;51.634;5.566;2023-03-01T18:43:41;6.55;;;2.10;;
58152;SDS011;43967;51.634;5.566;2023-03-01T18:49:03;7.77;;;2.70;;
58152;SDS011;43967;51.634;5.566;2023-03-01T18:54:24;6.05;;;2.25;;
58152;SDS011;43967;51.634;5.566;2023-03-01T18:59:45;6.28;;;2.00;;
58152;SDS011;43967;51.634;5.566;2023-03-01T19:05:07;7.50;;;2.40;;
58152;SDS011;43967;51.634;5.566;2023-03-01T19:10:28;7.03;;;2.40;;
58152;SDS011;43967;51.634;5.566;2023-03-01T19:15:49;6.35;;;2.35;;
58152;SDS011;43967;51.634;5.566;2023-03-01T19:21:11;6.70;;;2.40;;
58152;SDS011;43967;51.634;5.566;2023-03-01T19:26:32;5.60;;;1.90;;
58152;SDS011;43967;51.634;5.566;2023-03-01T19:31:54;6.60;;;2.55;;
58152;SDS011;43967;51.634;5.566;2023-03-01T19:37:15;6.78;;;2.20;;
58152;SDS011;43967;51.634;5.566;2023-03-01T19:42:36;8.50;;;2.27;;
58152;SDS011;43967;51.634;5.566;2023-03-01T19:47:58;7.20;;;2.25;;
58152;SDS011;43967;51.634;5.566;2023-03-01T19:53:19;8.32;;;2.15;;
58152;SDS011;43967;51.634;5.566;2023-03-01T19:58:41;8.70;;;2.40;;
58152;SDS011;43967;51.634;5.566;2023-03-01T20:04:02;6.80;;;2.27;;
58152;SDS011;43967;51.634;5.566;2023-03-01T20:09:24;7.78;;;2.53;;
58152;SDS011;43967;51.634;5.566;2023-03-01T20:14:45;6.43;;;2.33;;
58152;SDS011;43967;51.634;5.566;2023-03-01T20:20:06;7.17;;;2.30;;
58152;SDS011;43967;51.634;5.566;2023-03-01T20:25:28;6.35;;;2.38;;
58152;SDS011;43967;51.634;5.566;2023-03-01T20:30:49;6.95;;;2.10;;
58152;SDS011;43967;51.634;5.566;2023-03-01T20:36:11;6.17;;;2.27;;
58152;SDS011;43967;51.634;5.566;2023-03-01T20:41:32;6.70;;;2.47;;
58152;SDS011;43967;51.634;5.566;2023-03-01T20:46:53;6.07;;;2.15;;
58152;SDS011;43967;51.634;5.566;2023-03-01T20:52:14;6.30;;;2.57;;
58152;SDS011;43967;51.634;5.566;2023-03-01T20:57:36;7.30;;;2.53;;
58152;SDS011;43967;51.634;5.566;2023-03-01T21:02:57;6.40;;;2.22;;
58152;SDS011;43967;51.634;5.566;2023-03-01T21:08:18;6.03;;;2.00;;
58152;SDS011;43967;51.634;5.566;2023-03-01T21:13:39;7.37;;;2.20;;
58152;SDS011;43967;51.634;5.566;2023-03-01T21:19:01;6.78;;;2.03;;
58152;SDS011;43967;51.634;5.566;2023-03-01T21:24:22;6.05;;;2.08;;
58152;SDS011;43967;51.634;5.566;2023-03-01T21:29:44;6.60;;;2.40;;
58152;SDS011;43967;51.634;5.566;2023-03-01T21:35:06;7.20;;;2.40;;
58152;SDS011;43967;51.634;5.566;2023-03-01T21:40:28;6.50;;;2.20;;
58152;SDS011;43967;51.634;5.566;2023-03-01T21:45:49;6.43;;;2.10;;
58152;SDS011;43967;51.634;5.566;2023-03-01T21:51:11;6.67;;;2.33;;
58152;SDS011;43967;51.634;5.566;2023-03-01T21:56:34;6.25;;;2.28;;
58152;SDS011;43967;51.634;5.566;2023-03-01T22:01:55;7.03;;;2.17;;
58152;SDS011;43967;51.634;5.566;2023-03-01T22:07:16;8.33;;;2.23;;
58152;SDS011;43967;51.634;5.566;2023-03-01T22:12:38;7.18;;;2.13;;
58152;SDS011;43967;51.634;5.566;2023-03-01T22:17:59;6.90;;;2.10;;
58152;SDS011;43967;51.634;5.566;2023-03-01T22:23:20;6.60;;;2.30;;
58152;SDS011;43967;51.634;5.566;2023-03-01T22:28:41;6.78;;;2.40;;
58152;SDS011;43967;51.634;5.566;2023-03-01T22:34:03;5.90;;;2.00;;
58152;SDS011;43967;51.634;5.566;2023-03-01T22:39:24;6.20;;;1.93;;
58152;SDS011;43967;51.634;5.566;2023-03-01T22:44:46;5.47;;;2.10;;
58152;SDS011;43967;51.634;5.566;2023-03-01T22:50:07;6.60;;;2.25;;
58152;SDS011;43967;51.634;5.566;2023-03-01T22:55:32;5.90;;;1.83;;
58152;SDS011;43967;51.634;5.566;2023-03-01T23:00:53;6.67;;;1.90;;
58152;SDS011;43967;51.634;5.566;2023-03-01T23:06:15;6.93;;;1.85;;
58152;SDS011;43967;51.634;5.566;2023-03-01T23:11:37;5.68;;;1.65;;
58152;SDS011;43967;51.634;5.566;2023-03-01T23:16:59;6.10;;;2.23;;
58152;SDS011;43967;51.634;5.566;2023-03-01T23:22:21;5.60;;;1.85;;
58152;SDS011;43967;51.634;5.566;2023-03-01T23:27:42;6.20;;;1.73;;
58152;SDS011;43967;51.634;5.566;2023-03-01T23:33:03;5.73;;;2.10;;
58152;SDS011;43967;51.634;5.566;2023-03-01T23:38:24;6.83;;;2.50;;
58152;SDS011;43967;51.634;5.566;2023-03-01T23:43:47;5.63;;;2.13;;
58152;SDS011;43967;51.634;5.566;2023-03-01T23:49:10;6.05;;;2.20;;
58152;SDS011;43967;51.634;5.566;2023-03-01T23:54:33;6.10;;;2.00;;
58152;SDS011;43967;51.634;5.566;2023-03-01T23:59:55;6.50;;;1.95;;
